createdAt,value
2022-08-20T00:00:40.119Z,15.04
2022-08-20T00:03:30.988Z,15.05
2022-08-20T00:06:22.749Z,15.06
2022-08-20T00:09:13.599Z,15.07
2022-08-20T00:12:01.626Z,15.08
2022-08-20T00:15:10.534Z,15.09
2022-08-20T00:18:24.644Z,15.10
2022-08-20T00:21:33.111Z,15.13
2022-08-20T00:24:12.330Z,15.14
2022-08-20T00:27:05.179Z,15.16
2022-08-20T00:30:13.813Z,15.20
2022-08-20T00:33:23.247Z,15.21
2022-08-20T00:36:17.125Z,15.22
2022-08-20T00:39:05.130Z,15.22
2022-08-20T00:42:13.516Z,15.22
2022-08-20T00:45:04.922Z,15.22
2022-08-20T00:48:14.247Z,15.23
2022-08-20T00:51:05.272Z,15.22
2022-08-20T00:53:58.168Z,15.21
2022-08-20T00:56:57.733Z,15.21
2022-08-20T01:00:10.716Z,15.21
2022-08-20T01:03:00.131Z,15.21
2022-08-20T01:05:51.899Z,15.22
2022-08-20T01:08:40.609Z,15.23
2022-08-20T01:11:48.872Z,15.23
2022-08-20T01:14:58.943Z,15.23
2022-08-20T01:17:47.472Z,15.23
2022-08-20T01:20:46.885Z,15.24
2022-08-20T01:24:00.342Z,15.26
2022-08-20T01:26:46.380Z,15.28
2022-08-20T01:29:54.751Z,15.30
2022-08-20T01:33:01.958Z,15.34
2022-08-20T01:36:14.263Z,15.38
2022-08-20T01:39:23.854Z,15.43
2022-08-20T01:42:18.850Z,15.46
2022-08-20T01:45:07.363Z,15.49
2022-08-20T01:47:55.484Z,15.51
2022-08-20T01:50:49.677Z,15.53
2022-08-20T01:53:37.572Z,15.55
2022-08-20T01:56:27.475Z,15.55
2022-08-20T01:59:18.550Z,15.58
2022-08-20T02:02:27.827Z,15.59
2022-08-20T02:05:42.148Z,15.60
2022-08-20T02:08:30.605Z,15.61
2022-08-20T02:11:18.640Z,15.62
2022-08-20T02:14:16.094Z,15.64
2022-08-20T02:17:04.184Z,15.65
2022-08-20T02:19:55.862Z,15.67
2022-08-20T02:22:49.800Z,15.68
2022-08-20T02:25:29.506Z,15.69
2022-08-20T02:28:00.113Z,15.69
2022-08-20T02:30:42.592Z,15.70
2022-08-20T02:33:27.135Z,15.69
2022-08-20T02:35:58.025Z,15.68
2022-08-20T02:39:07.130Z,15.66
2022-08-20T02:41:46.867Z,15.65
2022-08-20T02:44:37.009Z,15.62
2022-08-20T02:47:17.273Z,15.57
2022-08-20T02:50:15.290Z,15.51
2022-08-20T02:53:03.795Z,15.44
2022-08-20T02:55:49.176Z,15.39
2022-08-20T02:58:47.479Z,15.37
2022-08-20T03:01:35.959Z,15.34
2022-08-20T03:04:44.231Z,15.30
2022-08-20T03:07:46.492Z,15.28
2022-08-20T03:10:46.322Z,15.26
2022-08-20T03:13:27.094Z,15.26
2022-08-20T03:16:33.712Z,15.26
2022-08-20T03:19:22.778Z,15.25
2022-08-20T03:22:11.148Z,15.26
2022-08-20T03:25:12.327Z,15.27
2022-08-20T03:28:14.693Z,15.28
2022-08-20T03:31:22.795Z,15.29
2022-08-20T03:34:13.741Z,15.29
2022-08-20T03:37:12.280Z,15.29
2022-08-20T03:40:22.589Z,15.29
2022-08-20T03:43:12.555Z,15.31
2022-08-20T03:46:04.159Z,15.33
2022-08-20T03:49:00.357Z,15.32
2022-08-20T03:51:58.452Z,15.33
2022-08-20T03:54:46.758Z,15.32
2022-08-20T03:57:28.669Z,15.33
2022-08-20T04:00:20.754Z,15.34
2022-08-20T04:03:12.706Z,15.35
2022-08-20T04:05:42.982Z,15.35
2022-08-20T04:08:53.301Z,15.36
2022-08-20T04:12:01.497Z,15.34
2022-08-20T04:14:52.516Z,15.33
2022-08-20T04:18:00.805Z,15.30
2022-08-20T04:21:09.255Z,15.29
2022-08-20T04:23:58.680Z,15.27
2022-08-20T04:27:08.216Z,15.25
2022-08-20T04:30:17.236Z,15.23
2022-08-20T04:33:33.335Z,15.21
2022-08-20T04:36:42.597Z,15.20
2022-08-20T04:40:05.384Z,15.18
2022-08-20T04:43:13.911Z,15.17
2022-08-20T04:46:07.618Z,15.15
2022-08-20T04:49:15.967Z,15.13
2022-08-20T04:52:04.240Z,15.11
2022-08-20T04:55:12.536Z,15.11
2022-08-20T04:58:04.779Z,15.09
2022-08-20T05:00:56.473Z,15.07
2022-08-20T05:04:03.891Z,15.05
2022-08-20T05:06:46.368Z,15.02
2022-08-20T05:09:56.605Z,15.00
2022-08-20T05:13:05.258Z,14.99
2022-08-20T05:16:04.555Z,14.98
2022-08-20T05:19:13.123Z,14.97
2022-08-20T05:22:01.158Z,14.97
2022-08-20T05:25:09.879Z,14.97
2022-08-20T05:28:00.168Z,14.98
2022-08-20T05:30:49.957Z,14.98
2022-08-20T05:33:40.620Z,14.99
2022-08-20T05:36:28.820Z,14.99
2022-08-20T05:39:17.620Z,15.02
2022-08-20T05:42:27.072Z,15.04
2022-08-20T05:45:45.938Z,15.06
2022-08-20T05:48:54.041Z,15.08
2022-08-20T05:52:17.946Z,15.11
2022-08-20T05:55:15.978Z,15.14
2022-08-20T05:58:07.992Z,15.17
2022-08-20T06:01:16.315Z,15.21
2022-08-20T06:04:24.441Z,15.23
2022-08-20T06:07:32.589Z,15.28
2022-08-20T06:10:25.654Z,15.32
2022-08-20T06:13:33.911Z,15.38
2022-08-20T06:16:57.394Z,15.44
2022-08-20T06:19:52.748Z,15.50
2022-08-20T06:22:35.359Z,15.56
2022-08-20T06:25:26.137Z,15.63
2022-08-20T06:28:18.192Z,15.70
2022-08-20T06:31:43.581Z,15.76
2022-08-20T06:34:50.217Z,15.81
2022-08-20T06:37:31.092Z,15.85
2022-08-20T06:40:05.578Z,15.89
2022-08-20T06:42:55.970Z,15.91
2022-08-20T06:45:58.694Z,15.96
2022-08-20T06:49:08.339Z,16.01
2022-08-20T06:52:16.824Z,16.06
2022-08-20T06:54:53.387Z,16.08
2022-08-20T06:57:26.878Z,16.10
2022-08-20T07:00:38.943Z,16.09
2022-08-20T07:03:28.881Z,16.07
2022-08-20T07:06:32.550Z,16.06
2022-08-20T07:13:41.515Z,16.07
2022-08-20T07:16:20.594Z,16.06
2022-08-20T07:18:51.170Z,16.06
2022-08-20T07:21:40.641Z,16.07
2022-08-20T07:24:33.280Z,16.08
2022-08-20T07:27:29.437Z,16.11
2022-08-20T07:30:58.349Z,16.16
2022-08-20T07:34:13.783Z,16.19
2022-08-20T07:37:17.477Z,16.29
2022-08-20T07:40:05.399Z,16.43
2022-08-20T07:42:42.903Z,16.56
2022-08-20T07:45:39.553Z,16.68
2022-08-20T07:49:10.088Z,16.72
2022-08-20T07:52:09.498Z,16.66
2022-08-20T07:55:36.967Z,16.55
2022-08-20T07:58:13.620Z,16.53
2022-08-20T08:00:48.537Z,16.92
2022-08-20T08:03:49.206Z,17.10
2022-08-20T08:07:20.847Z,18.33
2022-08-20T08:10:06.292Z,19.87
2022-08-20T08:12:48.216Z,21.06
2022-08-20T08:15:34.714Z,21.80
2022-08-20T08:18:17.164Z,22.07
2022-08-20T08:20:53.126Z,22.90
2022-08-20T08:23:48.196Z,23.71
2022-08-20T08:26:22.613Z,24.57
2022-08-20T08:29:04.796Z,25.15
2022-08-20T08:31:39.173Z,25.67
2022-08-20T08:34:22.611Z,26.16
2022-08-20T08:36:56.456Z,26.60
2022-08-20T08:39:34.941Z,27.08
2022-08-20T08:42:16.869Z,27.59
2022-08-20T08:44:45.411Z,28.07
2022-08-20T08:47:29.208Z,28.20
2022-08-20T08:50:24.815Z,28.44
2022-08-20T08:53:11.174Z,28.66
2022-08-20T08:55:47.370Z,28.83
2022-08-20T08:58:23.744Z,28.94
2022-08-20T09:00:56.573Z,29.07
2022-08-20T09:03:36.953Z,29.26
2022-08-20T09:06:14.952Z,29.50
2022-08-20T09:09:18.978Z,29.96
2022-08-20T09:12:47.549Z,30.59
2022-08-20T09:15:35.851Z,30.99
2022-08-20T09:18:19.587Z,31.32
2022-08-20T09:20:50.564Z,31.29
2022-08-20T09:23:23.017Z,30.94
2022-08-20T09:25:51.199Z,30.85
2022-08-20T09:28:24.594Z,30.58
2022-08-20T09:31:01.909Z,30.58
2022-08-20T09:33:32.811Z,30.75
2022-08-20T09:36:30.681Z,31.10
2022-08-20T09:39:06.813Z,31.54
2022-08-20T09:41:34.742Z,31.33
2022-08-20T09:44:02.708Z,31.77
2022-08-20T09:49:32.659Z,31.07
2022-08-20T09:55:35.182Z,30.74
2022-08-20T09:58:53.154Z,30.52
2022-08-20T10:01:22.150Z,30.83
2022-08-20T10:03:50.725Z,30.57
2022-08-20T10:06:21.380Z,30.07
2022-08-20T10:08:49.958Z,30.70
2022-08-20T10:11:20.530Z,31.03
2022-08-20T10:13:51.656Z,31.90
2022-08-20T10:16:19.545Z,32.07
2022-08-20T10:18:49.048Z,32.34
2022-08-20T10:21:21.271Z,32.70
2022-08-20T10:23:56.160Z,32.26
2022-08-20T10:26:23.904Z,32.04
2022-08-20T10:29:00.621Z,31.50
2022-08-20T10:31:28.776Z,30.20
2022-08-20T10:33:57.174Z,28.71
2022-08-20T10:36:25.048Z,27.51
2022-08-20T10:38:52.949Z,26.80
2022-08-20T10:41:20.948Z,27.49
2022-08-20T10:43:48.863Z,28.07
2022-08-20T10:46:16.815Z,27.37
2022-08-20T10:48:45.265Z,26.72
2022-08-20T10:51:13.476Z,26.42
2022-08-20T10:53:45.352Z,25.59
2022-08-20T10:56:15.607Z,24.89
2022-08-20T10:58:44.594Z,24.81
2022-08-20T11:01:12.418Z,25.35
2022-08-20T11:03:59.622Z,25.70
2022-08-20T11:06:46.543Z,25.34
2022-08-20T11:09:14.293Z,24.87
2022-08-20T11:11:45.770Z,25.20
2022-08-20T11:14:19.846Z,27.58
2022-08-20T11:16:58.571Z,27.75
2022-08-20T11:19:43.834Z,26.55
2022-08-20T11:22:54.919Z,25.65
2022-08-20T11:26:32.147Z,25.45
2022-08-20T11:29:14.117Z,25.90
2022-08-20T11:44:04.776Z,33.03
2022-08-20T11:47:58.408Z,31.76
2022-08-20T11:51:29.668Z,30.01
2022-08-20T11:54:17.597Z,29.29
2022-08-20T11:56:55.981Z,30.04
2022-08-20T11:59:44.636Z,31.28
2022-08-20T12:02:28.939Z,32.87
2022-08-20T12:05:55.151Z,34.43
2022-08-20T12:11:49.593Z,31.64
2022-08-20T12:15:37.365Z,30.86
2022-08-20T12:21:24.612Z,30.51
2022-08-20T12:24:16.071Z,31.42
2022-08-20T12:26:56.281Z,31.56
2022-08-20T12:30:00.962Z,33.24
2022-08-20T12:32:32.744Z,34.33
2022-08-20T12:35:00.885Z,33.13
2022-08-20T12:37:30.898Z,31.73
2022-08-20T12:40:06.203Z,30.71
2022-08-20T12:42:42.415Z,29.82
2022-08-20T12:45:10.992Z,29.64
2022-08-20T12:47:44.975Z,31.42
2022-08-20T12:50:31.251Z,33.27
2022-08-20T12:53:03.835Z,34.78
2022-08-20T12:55:36.139Z,35.53
2022-08-20T12:58:19.831Z,36.46
2022-08-20T13:00:59.254Z,36.04
2022-08-20T13:03:28.335Z,34.03
2022-08-20T13:06:09.585Z,34.44
2022-08-20T13:08:37.667Z,33.73
2022-08-20T13:11:05.669Z,32.94
2022-08-20T13:13:33.619Z,32.46
2022-08-20T13:16:08.010Z,31.49
2022-08-20T13:18:36.406Z,31.37
2022-08-20T13:21:10.093Z,30.85
2022-08-20T13:23:38.222Z,29.39
2022-08-20T13:26:06.790Z,28.45
2022-08-20T13:28:34.986Z,28.88
2022-08-20T13:31:03.235Z,28.60
2022-08-20T13:33:31.480Z,27.69
2022-08-20T13:36:00.064Z,27.21
2022-08-20T13:38:39.180Z,28.46
2022-08-20T13:41:07.267Z,28.70
2022-08-20T13:43:35.236Z,27.84
2022-08-20T13:46:05.062Z,26.88
2022-08-20T13:48:33.166Z,26.02
2022-08-20T13:51:01.283Z,25.32
2022-08-20T13:53:29.263Z,24.72
2022-08-20T13:56:03.628Z,25.89
2022-08-20T13:58:31.562Z,27.89
2022-08-20T14:00:59.317Z,29.37
2022-08-20T14:03:29.818Z,30.55
2022-08-20T14:06:00.424Z,31.42
2022-08-20T14:08:32.233Z,32.10
2022-08-20T14:11:00.249Z,32.35
2022-08-20T14:13:28.431Z,32.49
2022-08-20T14:15:56.466Z,32.67
2022-08-20T14:18:24.569Z,32.65
2022-08-20T14:20:52.368Z,32.54
2022-08-20T14:23:20.556Z,31.72
2022-08-20T14:25:49.979Z,30.35
2022-08-20T14:28:18.896Z,30.17
2022-08-20T14:30:53.220Z,30.11
2022-08-20T14:33:24.452Z,30.44
2022-08-20T14:35:52.493Z,29.99
2022-08-20T14:38:20.572Z,29.78
2022-08-20T14:40:54.360Z,29.90
2022-08-20T14:43:42.171Z,29.65
2022-08-20T14:46:16.677Z,29.15
2022-08-20T14:48:44.723Z,28.39
2022-08-20T14:51:24.881Z,28.12
2022-08-20T14:53:52.597Z,28.16
2022-08-20T14:56:20.451Z,27.74
2022-08-20T14:58:48.338Z,27.32
2022-08-20T15:01:19.298Z,27.01
2022-08-20T15:03:47.028Z,26.81
2022-08-20T15:06:21.996Z,26.79
2022-08-20T15:08:55.391Z,26.77
2022-08-20T15:11:34.452Z,26.51
2022-08-20T15:14:07.540Z,26.52
2022-08-20T15:16:42.313Z,26.54
2022-08-20T15:19:16.590Z,26.35
2022-08-20T15:21:49.410Z,26.15
2022-08-20T15:24:25.225Z,25.95
2022-08-20T15:26:59.570Z,25.74
2022-08-20T15:29:36.379Z,25.65
2022-08-20T15:32:08.154Z,25.73
2022-08-20T15:34:40.103Z,25.81
2022-08-20T15:37:18.375Z,25.74
2022-08-20T15:39:58.410Z,25.44
2022-08-20T15:42:29.605Z,24.87
2022-08-20T15:44:59.764Z,24.44
2022-08-20T15:47:34.119Z,24.25
2022-08-20T15:50:09.099Z,24.12
2022-08-20T15:52:43.128Z,23.97
2022-08-20T15:55:13.088Z,23.86
2022-08-20T15:57:55.876Z,23.71
2022-08-20T16:00:31.180Z,23.69
2022-08-20T16:03:16.150Z,23.45
2022-08-20T16:05:50.296Z,23.27
2022-08-20T16:08:31.928Z,23.37
2022-08-20T16:11:04.294Z,23.43
2022-08-20T16:13:38.952Z,23.40
2022-08-20T16:16:11.151Z,23.58
2022-08-20T16:18:41.570Z,23.71
2022-08-20T16:21:10.616Z,23.61
2022-08-20T16:23:39.631Z,23.66
2022-08-20T16:26:17.787Z,23.67
2022-08-20T16:28:49.449Z,23.46
2022-08-20T16:31:23.410Z,23.31
2022-08-20T16:33:59.781Z,23.33
2022-08-20T16:36:29.707Z,23.16
2022-08-20T16:39:03.187Z,22.99
2022-08-20T16:41:34.967Z,22.85
2022-08-20T16:44:06.565Z,22.84
2022-08-20T16:46:47.170Z,22.81
2022-08-20T16:49:15.459Z,22.84
2022-08-20T16:51:47.155Z,22.82
2022-08-20T16:54:29.568Z,22.70
2022-08-20T16:57:19.769Z,22.51
2022-08-20T17:00:05.609Z,22.38
2022-08-20T17:02:36.126Z,22.20
2022-08-20T17:05:06.794Z,22.04
2022-08-20T17:08:03.515Z,21.78
2022-08-20T17:10:54.045Z,21.42
2022-08-20T17:13:24.014Z,21.20
2022-08-20T17:16:01.765Z,21.04
2022-08-20T17:18:46.232Z,20.93
2022-08-20T17:21:16.238Z,20.76
2022-08-20T17:24:22.821Z,20.51
2022-08-20T17:26:58.308Z,20.35
2022-08-20T17:29:30.787Z,20.23
2022-08-20T17:32:08.546Z,20.13
2022-08-20T17:35:00.329Z,20.04
2022-08-20T17:37:53.978Z,19.95
2022-08-20T17:40:39.472Z,19.85
2022-08-20T17:43:57.373Z,19.63
2022-08-20T17:46:43.522Z,19.41
2022-08-20T17:49:15.125Z,19.22
2022-08-20T17:51:48.088Z,19.17
2022-08-20T17:54:22.128Z,19.10
2022-08-20T17:57:17.549Z,19.03
2022-08-20T18:00:22.961Z,18.91
2022-08-20T18:02:57.651Z,18.78
2022-08-20T18:05:27.402Z,18.67
2022-08-20T18:08:07.863Z,18.54
2022-08-20T18:11:41.636Z,18.38
2022-08-20T18:14:25.830Z,18.38
2022-08-20T18:17:04.913Z,18.55
2022-08-20T18:20:02.772Z,18.59
2022-08-20T18:22:48.621Z,18.52
2022-08-20T18:25:27.961Z,18.40
2022-08-20T18:28:18.723Z,18.24
2022-08-20T18:31:00.263Z,18.08
2022-08-20T18:33:34.988Z,17.96
2022-08-20T18:39:43.613Z,17.82
2022-08-20T18:42:43.350Z,17.80
2022-08-20T18:45:15.452Z,17.77
2022-08-20T18:48:05.077Z,17.68
2022-08-20T18:50:56.386Z,17.57
2022-08-20T18:53:29.207Z,17.53
2022-08-20T18:56:02.690Z,17.49
2022-08-20T18:58:32.161Z,17.43
2022-08-20T19:01:24.758Z,17.37
2022-08-20T19:04:24.761Z,17.34
2022-08-20T19:07:15.206Z,17.33
2022-08-20T19:10:08.881Z,17.31
2022-08-20T19:13:26.908Z,17.19
2022-08-20T19:16:05.979Z,17.08
2022-08-20T19:19:03.014Z,17.03
2022-08-20T19:21:42.227Z,17.00
2022-08-20T19:24:32.937Z,16.95
2022-08-20T19:27:02.464Z,16.90
2022-08-20T19:29:31.297Z,16.89
2022-08-20T19:32:24.670Z,16.85
2022-08-20T19:35:07.355Z,16.80
2022-08-20T19:37:50.902Z,16.76
2022-08-20T19:40:26.093Z,16.71
2022-08-20T19:43:29.824Z,16.68
2022-08-20T19:46:01.403Z,16.63
2022-08-20T19:48:46.675Z,16.61
2022-08-20T19:51:25.924Z,16.57
2022-08-20T19:54:07.397Z,16.52
2022-08-20T19:56:57.390Z,16.50
2022-08-20T19:59:31.122Z,16.50
2022-08-20T20:02:20.069Z,16.53
2022-08-20T20:04:54.853Z,16.53
2022-08-20T20:07:28.764Z,16.53
2022-08-20T20:10:10.631Z,16.54
2022-08-20T20:12:39.010Z,16.52
2022-08-20T20:15:30.950Z,16.52
2022-08-20T20:18:19.727Z,16.52
2022-08-20T20:21:12.112Z,16.51
2022-08-20T20:23:52.695Z,16.51
2022-08-20T20:26:41.128Z,16.49
2022-08-20T20:29:35.114Z,16.49
2022-08-20T20:32:24.300Z,16.46
2022-08-20T20:35:23.899Z,16.46
2022-08-20T20:38:05.378Z,16.46
2022-08-20T20:40:46.787Z,16.45
2022-08-20T20:43:48.619Z,16.40
2022-08-20T20:46:32.115Z,16.39
2022-08-20T20:49:25.509Z,16.41
2022-08-20T20:52:06.380Z,16.41
2022-08-20T20:55:10.745Z,16.41
2022-08-20T20:58:13.217Z,16.40
2022-08-20T21:01:11.592Z,16.38
2022-08-20T21:03:40.659Z,16.38
2022-08-20T21:06:26.643Z,16.37
2022-08-20T21:09:29.807Z,16.35
2022-08-20T21:12:10.135Z,16.35
2022-08-20T21:15:35.072Z,16.35
2022-08-20T21:18:19.455Z,16.37
2022-08-20T21:21:12.637Z,16.37
2022-08-20T21:24:02.191Z,16.38
2022-08-20T21:26:52.711Z,16.35
2022-08-20T21:30:20.126Z,16.34
2022-08-20T21:33:07.691Z,16.33
2022-08-20T21:35:40.543Z,16.32
2022-08-20T21:38:17.001Z,16.31
2022-08-20T21:41:29.986Z,16.28
2022-08-20T21:44:22.107Z,16.28
2022-08-20T21:47:15.467Z,16.29
2022-08-20T21:49:49.038Z,16.27
2022-08-20T21:53:00.059Z,16.26
2022-08-20T21:55:41.103Z,16.24
2022-08-20T21:58:19.444Z,16.24
2022-08-20T22:01:31.963Z,16.25
2022-08-20T22:04:20.557Z,16.25
2022-08-20T22:07:08.943Z,16.23
2022-08-20T22:09:38.493Z,16.21
2022-08-20T22:12:20.615Z,16.20
2022-08-20T22:14:51.308Z,16.18
2022-08-20T22:17:42.456Z,16.13
2022-08-20T22:20:19.239Z,16.10
2022-08-20T22:23:16.054Z,16.03
2022-08-20T22:26:14.735Z,15.93
2022-08-20T22:29:02.188Z,15.86
2022-08-20T22:31:53.683Z,15.75
2022-08-20T22:34:45.483Z,15.67
2022-08-20T22:37:44.776Z,15.61
2022-08-20T22:40:41.967Z,15.60
2022-08-20T22:43:57.432Z,15.60
2022-08-20T22:47:07.492Z,15.62
2022-08-20T22:50:15.381Z,15.62
2022-08-20T22:54:05.237Z,15.62
2022-08-20T22:56:56.527Z,15.60
2022-08-20T23:00:25.306Z,15.59
2022-08-20T23:07:10.856Z,15.54
2022-08-20T23:10:08.966Z,15.49
2022-08-20T23:13:00.650Z,15.45
2022-08-20T23:15:50.940Z,15.41
2022-08-20T23:19:01.412Z,15.39
2022-08-20T23:21:50.211Z,15.36
2022-08-20T23:28:39.877Z,15.18
2022-08-20T23:31:46.269Z,15.10
2022-08-20T23:34:35.700Z,15.05
2022-08-20T23:37:46.639Z,14.97
2022-08-20T23:40:28.127Z,14.89
2022-08-20T23:43:36.923Z,14.82
2022-08-20T23:46:54.579Z,14.78
2022-08-20T23:49:51.639Z,14.72
2022-08-20T23:52:39.837Z,14.65
2022-08-20T23:55:55.802Z,14.63
2022-08-20T23:59:04.767Z,14.64
